Time;durP1;ratioP1;P1;durP2;ratioP2;P2;SDS_P1;SDS_P2;PMS_P1;PMS_P2;Temp;Humidity;BMP_temperature;BMP_pressure;BME280_temperature;BME280_humidity;BME280_pressure;Samples;Min_cycle;Max_cycle;Signal;HPM_P1;HPM_P2
2023/06/23 00:00:12;;;;;;;26.08;23.27;;;17.80;99.90;;;;;;5017694;28;20231;-85
2023/06/23 00:02:40;;;;;;;21.50;19.20;;;17.80;99.90;;;;;;5017362;28;20202;-86
2023/06/23 00:05:09;;;;;;;21.67;18.75;;;17.80;99.90;;;;;;5017373;28;20245;-86
2023/06/23 00:07:36;;;;;;;19.70;17.42;;;17.80;99.90;;;;;;5017436;28;20286;-86
2023/06/23 00:10:05;;;;;;;18.42;16.40;;;17.70;99.90;;;;;;5017352;28;20349;-86
2023/06/23 00:12:33;;;;;;;16.30;14.68;;;17.70;99.90;;;;;;5017500;28;20211;-87
2023/06/23 00:15:01;;;;;;;17.98;14.70;;;17.70;99.90;;;;;;5017509;28;20226;-87
2023/06/23 00:17:28;;;;;;;15.68;14.07;;;17.60;99.90;;;;;;5032891;28;20245;-86
2023/06/23 00:19:55;;;;;;;18.05;15.85;;;17.60;99.90;;;;;;5037186;28;20226;-85
2023/06/23 00:22:23;;;;;;;18.98;16.48;;;17.60;99.90;;;;;;5022889;28;20217;-85
2023/06/23 00:24:50;;;;;;;18.38;15.40;;;17.60;99.90;;;;;;5017773;28;20208;-87
2023/06/23 00:27:17;;;;;;;19.20;17.17;;;17.50;99.90;;;;;;5017266;28;20223;-85
2023/06/23 00:29:44;;;;;;;22.27;17.85;;;17.60;99.90;;;;;;5033648;28;20234;-84
2023/06/23 00:32:11;;;;;;;21.85;19.52;;;17.50;99.90;;;;;;5036550;28;20202;-86
2023/06/23 00:34:38;;;;;;;23.85;19.42;;;17.60;99.90;;;;;;5036931;28;20222;-86
2023/06/23 00:37:05;;;;;;;21.73;19.35;;;17.60;99.90;;;;;;5036921;28;20607;-86
2023/06/23 00:39:34;;;;;;;17.95;15.25;;;17.60;99.90;;;;;;5036738;28;20209;-85
2023/06/23 00:42:06;;;;;;;24.40;20.75;;;17.50;99.90;;;;;;5036718;28;20237;-87
2023/06/23 00:44:34;;;;;;;28.95;22.23;;;17.50;99.90;;;;;;5036346;28;20206;-85
2023/06/23 00:47:02;;;;;;;24.70;20.50;;;17.60;99.90;;;;;;5036875;28;20293;-86
2023/06/23 00:49:29;;;;;;;26.90;20.77;;;17.60;99.90;;;;;;5035881;28;20241;-86
2023/06/23 00:51:58;;;;;;;27.27;22.65;;;17.60;99.90;;;;;;5036692;28;20237;-87
2023/06/23 00:54:28;;;;;;;31.60;26.38;;;17.60;99.90;;;;;;5036520;28;20312;-84
2023/06/23 00:56:58;;;;;;;31.17;25.63;;;17.70;99.90;;;;;;5022079;28;20246;-86
2023/06/23 00:59:28;;;;;;;32.58;25.52;;;17.60;99.90;;;;;;5016972;28;20215;-83
2023/06/23 01:01:58;;;;;;;30.73;25.08;;;17.70;99.90;;;;;;5016046;28;20211;-82
2023/06/23 01:04:25;;;;;;;28.35;22.63;;;17.70;99.90;;;;;;5016651;28;20215;-86
2023/06/23 01:06:59;;;;;;;29.90;23.75;;;17.70;99.90;;;;;;5016534;28;20203;-86
2023/06/23 01:09:35;;;;;;;27.58;21.83;;;17.70;99.90;;;;;;5016130;28;20253;-87
2023/06/23 01:12:12;;;;;;;29.58;23.40;;;17.60;99.90;;;;;;5016351;28;20643;-87
2023/06/23 01:14:46;;;;;;;27.23;21.55;;;17.60;99.90;;;;;;5015485;28;20206;-85
2023/06/23 01:17:21;;;;;;;27.77;19.63;;;17.60;99.90;;;;;;5016030;28;20235;-85
2023/06/23 01:19:55;;;;;;;23.45;19.58;;;17.60;99.90;;;;;;5016557;28;20235;-87
2023/06/23 01:22:31;;;;;;;24.63;19.00;;;17.50;99.90;;;;;;5016235;28;20525;-86
2023/06/23 01:25:09;;;;;;;22.00;16.80;;;17.50;99.90;;;;;;5033781;28;20621;-86
2023/06/23 01:28:08;;;;;;;22.55;20.10;;;17.50;99.90;;;;;;5035601;28;20209;-85
2023/06/23 01:30:40;;;;;;;19.88;17.02;;;17.50;99.90;;;;;;5035649;28;20282;-86
2023/06/23 01:33:15;;;;;;;20.67;16.75;;;17.50;99.90;;;;;;5031588;28;20756;-85
2023/06/23 01:35:46;;;;;;;25.83;19.95;;;17.40;99.90;;;;;;5015242;28;20209;-84
2023/06/23 01:38:19;;;;;;;23.58;20.10;;;17.40;99.90;;;;;;5015540;28;20251;-86
2023/06/23 01:40:51;;;;;;;19.60;16.50;;;17.50;99.90;;;;;;5015381;28;20504;-84
2023/06/23 01:43:29;;;;;;;22.63;17.20;;;17.40;99.90;;;;;;5014794;28;20192;-86
2023/06/23 01:46:00;;;;;;;21.30;17.80;;;17.40;99.90;;;;;;5017712;28;20218;-84
2023/06/23 01:48:28;;;;;;;17.33;13.90;;;17.40;99.90;;;;;;5029987;28;20206;-85
2023/06/23 01:50:57;;;;;;;15.43;13.13;;;17.40;99.90;;;;;;5033892;28;20288;-86
2023/06/23 01:53:25;;;;;;;16.02;13.70;;;17.30;99.90;;;;;;5027229;28;20259;-86
2023/06/23 01:55:54;;;;;;;15.30;13.00;;;17.30;99.90;;;;;;5015555;28;20238;-85
2023/06/23 01:58:23;;;;;;;20.67;17.30;;;17.30;99.90;;;;;;5015007;28;20219;-82
2023/06/23 02:00:51;;;;;;;19.90;17.48;;;17.30;99.90;;;;;;5015189;28;20203;-83
2023/06/23 02:03:20;;;;;;;18.80;16.50;;;17.30;99.90;;;;;;5014607;28;20215;-81
2023/06/23 02:05:49;;;;;;;16.35;13.75;;;17.30;99.90;;;;;;5015075;28;20226;-85
2023/06/23 02:08:17;;;;;;;21.48;17.38;;;17.30;99.90;;;;;;5015278;28;20202;-85
2023/06/23 02:10:45;;;;;;;20.02;15.30;;;17.20;99.90;;;;;;5018454;28;20259;-83
2023/06/23 02:13:15;;;;;;;24.77;19.27;;;17.20;99.90;;;;;;5034712;28;20198;-85
2023/06/23 02:15:44;;;;;;;21.50;16.40;;;17.30;99.90;;;;;;5033861;28;20578;-84
2023/06/23 02:18:12;;;;;;;24.92;19.05;;;17.30;99.90;;;;;;5031285;28;20245;-83
2023/06/23 02:20:43;;;;;;;28.00;20.48;;;17.30;99.90;;;;;;5015383;28;20203;-85
2023/06/23 02:23:11;;;;;;;28.50;20.63;;;17.30;99.90;;;;;;5015058;28;20238;-85
2023/06/23 02:25:39;;;;;;;23.85;20.17;;;17.30;99.90;;;;;;5014851;28;20227;-84
2023/06/23 02:28:08;;;;;;;33.72;24.92;;;17.40;99.90;;;;;;5014691;28;20484;-83
2023/06/23 02:30:35;;;;;;;26.90;22.33;;;17.50;99.90;;;;;;5023936;28;20205;-84
2023/06/23 02:33:02;;;;;;;28.17;24.50;;;17.50;99.90;;;;;;5033447;28;20256;-83
2023/06/23 02:35:30;;;;;;;33.97;26.60;;;17.50;99.90;;;;;;5033541;28;20228;-82
2023/06/23 02:38:01;;;;;;;29.27;25.75;;;17.50;99.90;;;;;;5034239;28;20580;-84
2023/06/23 02:40:32;;;;;;;32.17;28.50;;;17.60;99.90;;;;;;5028100;28;20241;-82
2023/06/23 02:43:05;;;;;;;33.63;26.60;;;17.60;99.90;;;;;;5014133;28;20203;-84
2023/06/23 02:45:39;;;;;;;33.10;29.27;;;17.60;99.90;;;;;;5014049;28;20231;-82
2023/06/23 02:48:13;;;;;;;31.70;27.15;;;17.70;99.90;;;;;;5014590;28;20219;-83
2023/06/23 02:50:40;;;;;;;31.55;26.33;;;17.70;99.90;;;;;;5013766;28;20286;-84
2023/06/23 02:53:12;;;;;;;28.70;25.50;;;17.70;99.90;;;;;;5021096;28;20309;-84
2023/06/23 02:55:42;;;;;;;30.50;27.23;;;17.70;99.90;;;;;;5032689;28;20198;-84
2023/06/23 02:58:13;;;;;;;31.00;27.17;;;17.70;99.90;;;;;;5020314;28;20237;-83
2023/06/23 03:00:41;;;;;;;31.00;27.70;;;17.70;99.90;;;;;;5012218;28;20250;-81
2023/06/23 03:03:13;;;;;;;34.20;30.50;;;17.60;99.90;;;;;;5012444;28;20679;-81
2023/06/23 03:05:41;;;;;;;29.65;26.55;;;17.70;99.90;;;;;;5013242;28;20226;-82
2023/06/23 03:08:09;;;;;;;30.42;27.13;;;17.60;99.90;;;;;;5012840;28;20227;-82
2023/06/23 03:10:36;;;;;;;28.58;25.58;;;17.60;99.90;;;;;;5013233;28;20203;-83
2023/06/23 03:13:03;;;;;;;25.92;23.30;;;17.60;99.90;;;;;;5014145;28;20215;-83
2023/06/23 03:15:31;;;;;;;31.02;27.60;;;17.60;99.90;;;;;;5013714;28;20629;-83
2023/06/23 03:18:07;;;;;;;29.67;26.55;;;17.60;99.90;;;;;;5013440;28;20326;-81
2023/06/23 03:20:38;;;;;;;26.33;23.30;;;17.60;99.90;;;;;;5012896;28;20199;-83
2023/06/23 03:23:09;;;;;;;27.50;23.77;;;17.60;99.90;;;;;;5022978;28;20217;-81
2023/06/23 03:25:40;;;;;;;29.92;25.98;;;17.50;99.90;;;;;;5032236;28;20234;-82
2023/06/23 03:28:10;;;;;;;31.00;26.77;;;17.60;99.90;;;;;;5017906;28;20227;-81
2023/06/23 03:30:42;;;;;;;30.60;25.90;;;17.60;99.90;;;;;;5013287;28;20208;-83
2023/06/23 03:33:13;;;;;;;28.52;25.52;;;17.50;99.90;;;;;;5013570;28;20227;-82
2023/06/23 03:35:43;;;;;;;28.30;25.40;;;17.50;99.90;;;;;;5012861;28;20406;-82
2023/06/23 03:38:14;;;;;;;31.70;27.25;;;17.50;99.90;;;;;;5012553;28;20631;-81
2023/06/23 03:40:48;;;;;;;28.90;25.25;;;17.50;99.90;;;;;;5012679;28;20261;-83
2023/06/23 03:43:19;;;;;;;25.60;22.92;;;17.50;99.90;;;;;;5014013;28;20191;-84
2023/06/23 03:45:51;;;;;;;26.58;23.75;;;17.50;99.90;;;;;;5014192;28;20230;-82
2023/06/23 03:48:20;;;;;;;27.85;24.90;;;17.50;99.90;;;;;;5012914;28;20313;-81
2023/06/23 03:50:52;;;;;;;30.15;26.73;;;17.50;99.90;;;;;;5011533;28;20724;-81
2023/06/23 03:53:21;;;;;;;31.27;27.95;;;17.50;99.90;;;;;;5015633;28;20310;-81
2023/06/23 03:55:51;;;;;;;31.08;27.85;;;17.60;99.90;;;;;;5032125;28;20201;-82
2023/06/23 03:58:20;;;;;;;29.40;26.25;;;17.60;99.90;;;;;;5032154;28;20265;-82
2023/06/23 04:00:50;;;;;;;29.17;26.13;;;17.60;99.90;;;;;;5016491;28;20209;-83
2023/06/23 04:03:20;;;;;;;25.45;22.67;;;17.60;99.90;;;;;;5011729;28;20250;-82
2023/06/23 04:05:49;;;;;;;28.67;24.42;;;17.60;99.90;;;;;;5012231;28;20202;-81
2023/06/23 04:08:19;;;;;;;26.02;23.35;;;17.60;99.90;;;;;;5015786;28;20227;-81
2023/06/23 04:10:47;;;;;;;23.73;21.27;;;17.60;99.90;;;;;;5015769;28;20203;-80
2023/06/23 04:13:16;;;;;;;31.48;27.10;;;17.60;99.90;;;;;;5016237;28;20519;-81
2023/06/23 04:15:45;;;;;;;29.42;26.23;;;17.70;99.90;;;;;;5015583;28;20290;-81
2023/06/23 04:18:14;;;;;;;28.83;25.83;;;17.70;99.90;;;;;;5015250;28;20254;-84
2023/06/23 04:20:42;;;;;;;25.90;23.10;;;17.70;99.90;;;;;;5017300;28;20196;-82
2023/06/23 04:23:11;;;;;;;22.33;20.10;;;17.70;99.90;;;;;;5017134;28;20194;-85
2023/06/23 04:25:40;;;;;;;25.40;20.48;;;17.70;99.90;;;;;;5016940;28;20235;-84
2023/06/23 04:28:10;;;;;;;23.17;20.77;;;17.70;99.90;;;;;;5016298;28;20191;-80
2023/06/23 04:30:40;;;;;;;20.08;18.00;;;17.70;99.90;;;;;;5015856;28;20227;-80
2023/06/23 04:33:07;;;;;;;20.80;18.65;;;17.80;99.90;;;;;;5016067;28;20811;-84
2023/06/23 04:35:35;;;;;;;19.67;17.52;;;17.80;99.90;;;;;;5017060;28;20261;-84
2023/06/23 04:38:05;;;;;;;15.73;13.90;;;17.80;99.90;;;;;;5016430;28;20227;-85
2023/06/23 04:40:39;;;;;;;18.30;16.50;;;17.80;99.90;;;;;;5035589;28;20294;-84
2023/06/23 04:43:12;;;;;;;14.40;12.90;;;17.90;99.90;;;;;;5016006;28;20538;-83
2023/06/23 04:45:45;;;;;;;15.43;13.73;;;17.90;99.90;;;;;;5014964;28;20199;-80
2023/06/23 04:48:14;;;;;;;15.95;14.15;;;18.00;99.90;;;;;;5028505;28;20222;-82
2023/06/23 04:50:43;;;;;;;17.20;14.18;;;18.00;99.90;;;;;;5035003;28;20282;-81
2023/06/23 04:53:17;;;;;;;15.80;14.10;;;18.10;99.90;;;;;;5033230;28;20921;-81
2023/06/23 04:55:50;;;;;;;15.75;13.25;;;18.20;99.90;;;;;;5016007;28;20659;-84
2023/06/23 04:58:19;;;;;;;14.15;11.88;;;18.20;99.90;;;;;;5016236;28;20600;-86
2023/06/23 05:00:48;;;;;;;13.57;12.18;;;18.30;99.90;;;;;;5016431;28;20231;-84
2023/06/23 05:03:17;;;;;;;13.30;11.90;;;18.30;99.90;;;;;;5016258;28;20211;-84
2023/06/23 05:05:46;;;;;;;14.00;10.95;;;18.40;99.90;;;;;;5015704;28;20203;-84
2023/06/23 05:08:14;;;;;;;13.05;11.55;;;18.50;99.90;;;;;;5015197;28;20227;-86
2023/06/23 05:10:42;;;;;;;12.40;11.15;;;18.50;99.90;;;;;;5030471;28;20206;-85
2023/06/23 05:13:12;;;;;;;9.85;8.85;;;18.60;99.90;;;;;;5028957;28;20230;-81
2023/06/23 05:15:39;;;;;;;13.38;11.82;;;18.60;99.90;;;;;;5014600;28;20199;-81
2023/06/23 05:18:08;;;;;;;13.77;12.38;;;18.60;99.90;;;;;;5014185;28;20259;-81
2023/06/23 05:20:38;;;;;;;12.10;10.65;;;18.70;99.90;;;;;;5013891;28;20655;-81
2023/06/23 05:23:06;;;;;;;10.32;9.07;;;18.70;99.90;;;;;;5014416;28;20204;-81
2023/06/23 05:25:34;;;;;;;12.93;11.10;;;18.70;99.90;;;;;;5013996;28;20207;-83
2023/06/23 05:28:03;;;;;;;13.73;12.32;;;18.70;99.90;;;;;;5013837;28;20195;-81
2023/06/23 05:30:31;;;;;;;13.55;12.20;;;18.70;99.90;;;;;;5013955;28;20603;-81
2023/06/23 05:33:01;;;;;;;12.90;11.73;;;18.70;99.90;;;;;;5014918;28;20547;-82
2023/06/23 05:35:32;;;;;;;12.10;10.82;;;18.70;99.90;;;;;;5014543;28;20631;-82
2023/06/23 05:38:02;;;;;;;11.90;10.77;;;18.80;99.90;;;;;;5024450;28;20203;-84
2023/06/23 05:40:29;;;;;;;12.43;11.23;;;18.80;99.90;;;;;;5034842;28;20297;-84
2023/06/23 05:42:56;;;;;;;12.50;10.48;;;18.80;99.90;;;;;;5017224;28;20204;-82
2023/06/23 05:45:24;;;;;;;11.82;10.63;;;18.80;99.90;;;;;;5014301;28;20286;-81
2023/06/23 05:47:59;;;;;;;9.98;9.02;;;18.90;99.90;;;;;;5013542;28;20552;-81
2023/06/23 05:50:31;;;;;;;10.65;9.55;;;18.90;99.90;;;;;;5015774;28;20201;-81
2023/06/23 05:53:02;;;;;;;10.18;9.10;;;18.90;99.90;;;;;;5032994;28;20238;-83
2023/06/23 05:55:30;;;;;;;10.35;9.35;;;19.00;99.90;;;;;;5023056;28;20203;-82
2023/06/23 05:58:03;;;;;;;9.65;8.70;;;18.90;99.90;;;;;;5012509;28;20212;-82
2023/06/23 06:00:35;;;;;;;11.80;9.20;;;19.00;99.90;;;;;;5013907;28;20306;-85
2023/06/23 06:03:04;;;;;;;10.63;9.52;;;19.00;99.90;;;;;;5014957;28;20592;-85
2023/06/23 06:05:34;;;;;;;17.30;10.30;;;19.00;99.90;;;;;;5025159;28;20281;-86
2023/06/23 06:08:03;;;;;;;11.90;9.40;;;19.00;99.90;;;;;;5034181;28;20260;-88
2023/06/23 06:10:32;;;;;;;10.52;8.70;;;19.00;99.90;;;;;;5015163;28;20207;-87
2023/06/23 06:13:01;;;;;;;7.82;7.03;;;19.10;99.90;;;;;;5013580;28;20195;-87
2023/06/23 06:15:29;;;;;;;9.35;8.50;;;19.10;99.90;;;;;;5013747;28;20278;-86
2023/06/23 06:17:58;;;;;;;9.50;8.50;;;19.10;99.90;;;;;;5012818;28;20322;-86
2023/06/23 06:20:27;;;;;;;11.32;9.02;;;19.10;99.90;;;;;;5014550;28;20223;-87
2023/06/23 06:22:57;;;;;;;13.52;10.15;;;19.10;99.90;;;;;;5015283;28;20245;-88
2023/06/23 06:25:26;;;;;;;10.23;9.23;;;19.10;99.90;;;;;;5014578;28;20797;-87
2023/06/23 06:27:54;;;;;;;9.48;8.45;;;19.20;99.90;;;;;;5014972;28;20210;-85
2023/06/23 06:30:23;;;;;;;9.88;8.98;;;19.20;99.90;;;;;;4997219;28;20234;-88
2023/06/23 06:32:52;;;;;;;10.20;9.23;;;19.30;99.90;;;;;;5033306;28;20198;-85
2023/06/23 06:35:22;;;;;;;9.80;8.80;;;19.50;99.90;;;;;;5034683;28;20294;-87
2023/06/23 06:37:52;;;;;;;8.75;7.95;;;19.80;99.90;;;;;;5034067;28;20233;-87
2023/06/23 06:40:23;;;;;;;8.82;7.65;;;20.10;99.90;;;;;;5020938;28;20254;-84
2023/06/23 06:42:50;;;;;;;8.80;7.97;;;20.50;99.90;;;;;;5027054;28;20238;-86
2023/06/23 06:45:17;;;;;;;7.90;7.10;;;20.90;99.90;;;;;;5033713;28;20257;-86
2023/06/23 06:47:47;;;;;;;6.43;5.82;;;21.20;99.90;;;;;;5034508;28;20241;-84
2023/06/23 06:50:16;;;;;;;7.63;6.68;;;21.60;99.90;;;;;;5034684;28;20553;-88
2023/06/23 06:52:44;;;;;;;6.63;5.93;;;21.80;99.90;;;;;;5014884;28;20313;-87
2023/06/23 06:55:16;;;;;;;6.20;5.70;;;22.20;99.90;;;;;;5014651;28;20537;-87
2023/06/23 06:57:45;;;;;;;7.55;5.78;;;22.40;99.90;;;;;;5024210;28;20286;-87
2023/06/23 07:00:14;;;;;;;5.88;5.28;;;22.50;99.90;;;;;;5034240;28;20708;-87
2023/06/23 07:02:42;;;;;;;6.25;5.65;;;22.70;99.90;;;;;;5033782;28;20238;-86
2023/06/23 07:05:09;;;;;;;7.57;5.35;;;23.10;99.90;;;;;;5033337;28;20195;-85
2023/06/23 07:07:36;;;;;;;6.13;5.53;;;23.30;99.90;;;;;;5014539;28;20258;-88
2023/06/23 07:10:04;;;;;;;7.93;5.43;;;23.30;99.90;;;;;;5015502;28;20310;-86
2023/06/23 07:12:32;;;;;;;6.88;6.15;;;23.20;99.90;;;;;;5020875;28;20221;-86
2023/06/23 07:15:01;;;;;;;7.68;5.72;;;23.10;99.90;;;;;;5014464;28;20195;-88
2023/06/23 07:17:28;;;;;;;5.97;5.43;;;23.00;99.90;;;;;;5014543;28;20261;-85
2023/06/23 07:19:54;;;;;;;7.88;6.20;;;23.10;99.90;;;;;;5013685;28;20254;-85
2023/06/23 07:22:21;;;;;;;8.77;6.57;;;23.10;99.90;;;;;;5014330;28;20203;-84
2023/06/23 07:24:48;;;;;;;8.88;6.70;;;23.20;99.90;;;;;;5019716;28;20745;-84
2023/06/23 07:27:16;;;;;;;7.40;6.70;;;23.30;99.90;;;;;;5033865;28;20318;-83
2023/06/23 07:29:43;;;;;;;7.85;6.10;;;23.50;99.90;;;;;;5033222;28;20248;-85
2023/06/23 07:32:14;;;;;;;7.75;6.25;;;23.90;99.90;;;;;;5033869;28;20285;-85
2023/06/23 07:34:41;;;;;;;8.43;6.38;;;24.30;99.90;;;;;;5033034;28;20248;-86
2023/06/23 07:37:09;;;;;;;9.00;5.93;;;24.50;99.90;;;;;;5033076;28;20608;-86
2023/06/23 07:39:36;;;;;;;7.03;5.88;;;24.80;99.90;;;;;;5017658;28;20281;-87
2023/06/23 07:42:04;;;;;;;7.85;6.15;;;25.00;99.90;;;;;;5016316;28;20472;-85
2023/06/23 07:44:32;;;;;;;7.30;5.20;;;25.20;99.90;;;;;;5017729;28;20675;-87
2023/06/23 07:46:59;;;;;;;6.88;6.05;;;25.30;99.90;;;;;;5017096;28;20295;-87
2023/06/23 07:49:28;;;;;;;6.18;5.57;;;25.40;99.90;;;;;;5017142;28;20622;-83
2023/06/23 07:51:59;;;;;;;9.07;6.40;;;25.70;99.90;;;;;;5017115;28;20242;-83
2023/06/23 07:54:27;;;;;;;6.75;6.10;;;25.90;99.90;;;;;;5017718;28;20321;-89
2023/06/23 07:56:54;;;;;;;6.70;5.40;;;26.10;99.90;;;;;;5017005;28;20245;-87
2023/06/23 07:59:21;;;;;;;7.72;6.28;;;26.10;99.90;;;;;;5017744;28;20250;-85
2023/06/23 08:01:48;;;;;;;6.32;5.75;;;26.30;83.40;;;;;;5017305;28;20207;-86
2023/06/23 08:04:15;;;;;;;7.53;6.45;;;26.40;83.90;;;;;;5016987;28;20235;-87
2023/06/23 08:06:43;;;;;;;6.35;5.70;;;26.40;17.60;;;;;;5034642;28;20285;-87
2023/06/23 08:09:10;;;;;;;6.78;6.10;;;26.30;99.90;;;;;;5036638;28;20519;-86
2023/06/23 08:11:38;;;;;;;7.38;6.65;;;26.40;99.90;;;;;;5036582;28;20195;-85
2023/06/23 08:14:05;;;;;;;6.80;6.10;;;26.60;81.70;;;;;;5031216;28;20211;-89
2023/06/23 08:16:32;;;;;;;6.60;5.97;;;26.70;53.20;;;;;;5017245;28;20361;-86
2023/06/23 08:18:59;;;;;;;8.57;5.95;;;26.90;99.90;;;;;;5017300;28;20225;-84
2023/06/23 08:21:26;;;;;;;6.38;5.65;;;27.00;99.90;;;;;;5016255;28;20223;-87
2023/06/23 08:23:54;;;;;;;8.00;6.35;;;27.10;20.30;;;;;;5016598;28;20192;-87
2023/06/23 08:26:22;;;;;;;7.05;6.45;;;27.40;99.90;;;;;;5025440;28;20238;-89
2023/06/23 08:28:49;;;;;;;7.28;5.95;;;27.50;41.30;;;;;;5032083;28;20203;-88
2023/06/23 08:31:16;;;;;;;8.00;6.70;;;27.60;99.90;;;;;;5029746;28;20196;-90
2023/06/23 08:33:44;;;;;;;7.28;6.22;;;27.60;58.40;;;;;;5016631;28;20545;-92
2023/06/23 08:36:11;;;;;;;6.80;5.88;;;27.70;1.00;;;;;;5028171;28;20199;-87
2023/06/23 08:38:38;;;;;;;7.03;6.32;;;27.80;99.90;;;;;;5034866;28;20245;-87
2023/06/23 08:41:07;;;;;;;9.05;6.93;;;27.70;99.90;;;;;;5035851;28;20239;-86
2023/06/23 08:43:36;;;;;;;6.25;5.75;;;27.70;99.90;;;;;;5031210;28;20245;-86
2023/06/23 08:46:04;;;;;;;8.32;6.15;;;27.60;99.90;;;;;;5034202;28;20945;-85
2023/06/23 08:48:31;;;;;;;6.78;6.20;;;27.50;99.90;;;;;;5034773;28;20633;-89
2023/06/23 08:51:00;;;;;;;9.35;6.88;;;27.50;99.90;;;;;;5031706;28;20195;-85
2023/06/23 08:53:27;;;;;;;7.20;6.50;;;27.50;99.90;;;;;;5033294;28;20869;-89
2023/06/23 08:55:55;;;;;;;6.25;5.65;;;27.50;99.90;;;;;;5016265;28;20195;-88
2023/06/23 08:58:25;;;;;;;6.35;5.75;;;27.60;99.90;;;;;;5014880;28;20202;-82
2023/06/23 09:00:53;;;;;;;8.27;6.22;;;27.50;99.90;;;;;;5014548;28;20310;-88
2023/06/23 09:03:21;;;;;;;5.75;5.25;;;27.60;99.90;;;;;;5014996;28;20322;-87
2023/06/23 09:05:48;;;;;;;8.77;6.15;;;27.80;99.90;;;;;;5015143;28;20232;-88
2023/06/23 09:08:16;;;;;;;6.68;6.07;;;27.70;99.90;;;;;;5015234;28;20199;-91
2023/06/23 09:10:44;;;;;;;6.30;5.80;;;27.50;99.90;;;;;;5014333;28;20206;-87
2023/06/23 09:13:23;;;;;;;6.15;5.55;;;27.40;99.90;;;;;;5013858;28;20282;-89
2023/06/23 09:15:52;;;;;;;7.22;6.53;;;27.40;99.90;;;;;;5015285;28;20536;-87
2023/06/23 09:18:20;;;;;;;6.30;5.70;;;27.20;99.90;;;;;;5016213;28;20266;-89
2023/06/23 09:20:48;;;;;;;6.68;5.90;;;27.30;99.90;;;;;;5016206;28;20223;-89
2023/06/23 09:23:16;;;;;;;6.38;5.78;;;27.30;99.90;;;;;;5015933;28;20233;-92
2023/06/23 09:25:47;;;;;;;5.88;5.38;;;27.60;99.90;;;;;;5016106;28;20627;-87
2023/06/23 09:28:25;;;;;;;5.88;5.00;;;27.70;99.90;;;;;;5031360;28;20191;-87
2023/06/23 09:30:55;;;;;;;7.45;5.55;;;27.90;99.90;;;;;;5035575;28;20260;-90
2023/06/23 09:33:22;;;;;;;7.32;4.90;;;27.80;99.90;;;;;;5035739;28;20207;-87
2023/06/23 09:35:50;;;;;;;6.38;5.05;;;27.80;99.90;;;;;;5024297;28;20290;-90
2023/06/23 09:38:22;;;;;;;5.45;4.78;;;27.90;99.90;;;;;;5025098;28;20540;-87
2023/06/23 09:40:49;;;;;;;5.22;4.72;;;27.90;99.90;;;;;;5035518;28;20229;-90
2023/06/23 09:43:16;;;;;;;5.57;4.20;;;27.90;99.90;;;;;;5035047;28;20199;-88
2023/06/23 09:45:45;;;;;;;5.93;5.10;;;27.90;99.90;;;;;;5035398;28;20280;-88
2023/06/23 09:48:20;;;;;;;4.97;4.47;;;28.10;99.90;;;;;;5035515;28;20202;-92
2023/06/23 09:51:00;;;;;;;5.38;4.57;;;28.10;99.90;;;;;;5035066;28;20202;-91
2023/06/23 09:53:30;;;;;;;4.05;3.65;;;28.30;99.90;;;;;;5035032;28;20250;-90
2023/06/23 09:55:59;;;;;;;4.57;3.85;;;28.40;99.90;;;;;;5022589;28;20278;-91
2023/06/23 09:58:29;;;;;;;3.78;3.47;;;28.50;99.90;;;;;;5015808;28;20203;-93
2023/06/23 10:01:01;;;;;;;3.47;3.17;;;28.50;99.90;;;;;;5015036;28;20226;-90
2023/06/23 10:03:30;;;;;;;5.25;3.50;;;28.50;99.90;;;;;;5021339;28;20222;-88
2023/06/23 10:05:59;;;;;;;4.50;3.97;;;28.40;99.90;;;;;;5035407;28;20571;-93
2023/06/23 10:08:27;;;;;;;3.50;2.78;;;28.20;99.90;;;;;;5034084;28;20256;-89
2023/06/23 10:10:55;;;;;;;3.47;3.13;;;28.10;99.90;;;;;;5033179;28;20203;-94
2023/06/23 10:13:25;;;;;;;3.72;3.42;;;28.10;99.90;;;;;;5033095;28;20199;-82
2023/06/23 10:15:53;;;;;;;3.55;2.60;;;28.10;99.90;;;;;;5034689;28;20187;-92
2023/06/23 10:18:20;;;;;;;3.83;2.63;;;28.10;99.90;;;;;;5027173;28;20289;-92
2023/06/23 10:20:49;;;;;;;4.75;2.65;;;28.20;99.90;;;;;;5014403;28;20231;-90
2023/06/23 10:23:17;;;;;;;4.28;3.30;;;28.30;99.90;;;;;;5028071;28;20285;-89
2023/06/23 10:25:46;;;;;;;5.38;3.65;;;28.40;99.90;;;;;;5015539;28;20199;-86
2023/06/23 10:28:16;;;;;;;3.33;3.03;;;28.30;99.90;;;;;;5031678;28;20281;-93
2023/06/23 10:30:44;;;;;;;3.33;3.05;;;28.30;99.90;;;;;;5034911;28;20237;-95
2023/06/23 10:33:18;;;;;;;4.00;3.60;;;28.40;99.90;;;;;;5041119;28;20202;-91
2023/06/23 10:35:49;;;;;;;3.47;3.17;;;28.40;99.90;;;;;;5038734;28;20226;-95
2023/06/23 10:38:21;;;;;;;4.00;3.00;;;28.40;99.90;;;;;;5036956;28;20256;-92
2023/06/23 10:40:51;;;;;;;4.88;2.97;;;28.50;99.90;;;;;;5035778;28;20210;-91
2023/06/23 10:43:20;;;;;;;4.90;2.83;;;28.30;99.90;;;;;;5035649;28;20214;-96
2023/06/23 10:45:50;;;;;;;5.82;2.90;;;28.40;99.90;;;;;;5036448;28;20256;-95
2023/06/23 10:48:18;;;;;;;2.40;2.20;;;28.40;99.90;;;;;;5035587;28;20191;-84
2023/06/23 10:50:47;;;;;;;3.58;3.13;;;28.60;99.90;;;;;;5035061;28;20199;-91
2023/06/23 10:53:20;;;;;;;4.85;3.25;;;28.80;99.90;;;;;;5047887;28;20218;-92
2023/06/23 10:55:48;;;;;;;3.65;2.78;;;28.90;99.90;;;;;;5054025;28;20598;-95
2023/06/23 10:58:17;;;;;;;3.03;2.50;;;28.60;99.90;;;;;;5054458;28;20533;-94
2023/06/23 11:01:00;;;;;;;4.53;3.10;;;28.50;99.90;;;;;;5016277;28;20304;-90
2023/06/23 11:03:32;;;;;;;5.88;3.03;;;28.50;99.90;;;;;;5014891;28;20308;-91
2023/06/23 11:05:59;;;;;;;4.57;3.40;;;28.50;99.90;;;;;;5019719;28;20274;-91
2023/06/23 11:08:34;;;;;;;5.00;3.35;;;28.60;99.90;;;;;;5035353;28;20252;-91
2023/06/23 11:11:05;;;;;;;4.22;3.13;;;28.50;99.90;;;;;;5033958;28;20520;-91
2023/06/23 11:13:38;;;;;;;3.80;3.22;;;28.60;99.90;;;;;;5034103;28;20203;-91
2023/06/23 11:16:06;;;;;;;3.67;3.30;;;28.50;99.90;;;;;;5036069;28;20210;-89
2023/06/23 11:18:33;;;;;;;5.63;3.65;;;28.20;99.90;;;;;;5038267;28;20209;-80
2023/06/23 11:21:16;;;;;;;4.78;3.38;;;27.70;99.90;;;;;;5037905;28;20241;-84
2023/06/23 11:24:23;;;;;;;4.05;3.20;;;27.70;99.90;;;;;;5037461;28;20226;-89
2023/06/23 11:27:02;;;;;;;4.40;3.53;;;27.80;99.90;;;;;;5033864;28;20264;-85
2023/06/23 11:29:30;;;;;;;2.97;2.50;;;28.00;99.90;;;;;;5035411;28;20213;-90
2023/06/23 11:32:08;;;;;;;4.00;3.50;;;27.90;99.90;;;;;;5037978;28;20198;-90
2023/06/23 11:34:52;;;;;;;3.58;2.72;;;27.80;99.90;;;;;;5038305;28;20202;-95
2023/06/23 11:37:19;;;;;;;4.40;3.05;;;27.90;99.90;;;;;;5038204;28;20288;-92
2023/06/23 11:39:47;;;;;;;2.78;2.47;;;28.10;99.90;;;;;;5037756;28;20199;-92
2023/06/23 11:42:16;;;;;;;5.25;3.03;;;28.00;99.90;;;;;;5037220;28;20225;-92
2023/06/23 11:44:43;;;;;;;3.05;2.72;;;27.90;99.90;;;;;;5037909;28;20272;-93
2023/06/23 11:47:10;;;;;;;4.57;3.58;;;27.80;99.90;;;;;;5037452;28;20195;-87
2023/06/23 11:49:37;;;;;;;3.72;2.97;;;28.00;99.90;;;;;;5024718;28;20262;-83
2023/06/23 11:52:05;;;;;;;5.22;2.80;;;28.10;99.90;;;;;;5018127;28;20203;-91
2023/06/23 11:54:35;;;;;;;3.90;3.30;;;28.20;99.90;;;;;;5017682;28;20195;-88
2023/06/23 11:57:02;;;;;;;5.72;3.30;;;28.10;99.90;;;;;;5017286;28;20226;-93
2023/06/23 11:59:36;;;;;;;7.38;3.60;;;28.10;99.90;;;;;;5017843;28;20728;-88
2023/06/23 12:02:04;;;;;;;4.55;3.00;;;28.10;99.90;;;;;;5017676;28;20223;-96
2023/06/23 12:04:31;;;;;;;2.65;2.35;;;28.00;99.90;;;;;;5018120;28;20211;-95
2023/06/23 12:07:00;;;;;;;3.13;2.83;;;28.00;99.90;;;;;;5016612;28;20287;-88
2023/06/23 12:09:27;;;;;;;3.78;2.65;;;27.90;99.90;;;;;;5033953;28;20289;-88
2023/06/23 12:11:56;;;;;;;2.67;2.38;;;28.00;99.90;;;;;;5036868;28;20655;-82
2023/06/23 12:14:30;;;;;;;2.78;2.50;;;28.00;99.90;;;;;;5029123;28;20218;-85
2023/06/23 12:17:07;;;;;;;3.70;2.92;;;28.10;99.90;;;;;;5016001;28;20238;-84
2023/06/23 12:19:34;;;;;;;2.88;2.53;;;28.20;99.90;;;;;;5017508;28;20219;-91
2023/06/23 12:22:01;;;;;;;3.65;2.92;;;28.00;99.90;;;;;;5017971;28;20210;-95
2023/06/23 12:24:30;;;;;;;3.47;2.90;;;27.90;99.90;;;;;;5017953;28;20528;-94
2023/06/23 12:26:58;;;;;;;3.72;2.90;;;27.70;99.90;;;;;;5016204;28;20203;-88
2023/06/23 12:29:25;;;;;;;2.88;2.58;;;27.70;99.90;;;;;;5017346;28;20195;-92
2023/06/23 12:31:57;;;;;;;3.38;2.72;;;27.50;99.90;;;;;;5028131;28;20198;-94
2023/06/23 12:34:33;;;;;;;3.05;2.75;;;27.30;99.90;;;;;;5037023;28;20195;-93
2023/06/23 12:37:05;;;;;;;2.63;2.42;;;27.30;99.90;;;;;;5036369;28;20499;-95
2023/06/23 12:39:32;;;;;;;6.05;3.30;;;27.30;99.90;;;;;;5018628;28;20235;-95
2023/06/23 12:42:00;;;;;;;4.00;2.70;;;27.40;99.90;;;;;;5017450;28;20223;-93
2023/06/23 12:44:27;;;;;;;4.38;3.92;;;27.30;99.90;;;;;;5028246;28;20198;-94
2023/06/23 12:46:55;;;;;;;4.32;3.30;;;27.20;99.90;;;;;;5037550;28;20210;-91
2023/06/23 12:49:32;;;;;;;4.35;3.40;;;27.20;99.90;;;;;;5025974;23;20260;-83